• Join FlightAware (Why Join?)
  • Login
  • US Flag 
03:38PM EDT


 

Airport Tracker/Info


-or-


 

Live Flight TrackerFlight Track Log ✈ SWA3678 ✈ 04-May-2013 ✈ KRDU - KBWI

Flight Track Log - Related Links

Times and Time Zones

All times are in EDT time to prevent confusion due to time zone crossing. See the SWA3678 flight status page for this flight to view local times or setup timezone preferences in your user account.

Time Position Orientation Groundspeed Altitude Reporting Facility
EDT Latitude Longitude Course Direction KTS MPH feet Rate Location/Type
09:59AM 35.8822 -78.7761 18° North 145 167 1,400  Level Washington Center
09:59AM 35.9053 -78.7667 18° North 167 192 2,200 2,040 Climbing Washington Center
10:00AM 35.9519 -78.7428 23° Northeast 201 231 4,300 2,400 Climbing Washington Center
10:01AM 36.0156 -78.6992 29° Northeast 228 262 7,100 3,060 Climbing Washington Center
10:02AM 36.0797 -78.6375 38° Northeast 260 299 10,500 3,120 Climbing Washington Center
10:03AM 36.1311 -78.5828 41° Northeast 283 326 13,400 3,660 Climbing Washington Center
10:04AM 36.1797 -78.4742 61° Northeast 305 351 17,900 3,720 Climbing Washington Center
10:05AM 36.1950 -78.3667 80° East 305 351 21,000 2,520 Climbing Washington Center
10:06AM 36.2142 -78.2514 78° East 317 365 23,000 960 Climbing Washington Center
10:07AM 36.2983 -78.2233 15° North 263 303 23,000  Level Washington Center
10:08AM 36.3867 -78.2881 329° Northwest 263 303 23,000  Level Washington Center
10:09AM 36.4747 -78.3506 330° Northwest 313 360 23,000  Level Washington Center
10:10AM 36.5631 -78.4133 330° Northwest 339 390 23,000  Level Washington Center
10:11AM 36.6525 -78.4294 352° North 327 376 23,000  Level Washington Center
10:12AM 36.7214 -78.3386 47° Northeast 286 329 23,000  Level Washington Center
10:13AM 36.7900 -78.2503 46° Northeast 315 362 23,000  Level Washington Center
10:14AM 36.8608 -78.1592 46° Northeast 334 384 23,100  Climbing Washington Center
10:15AM 36.9361 -78.0606 46° Northeast 366 421 23,000 -60 Descending Washington Center
10:16AM 37.0153 -77.9589 46° Northeast 390 449 23,000  Level Washington Center
10:17AM 37.0944 -77.8547 46° Northeast 397 457 23,000  Level Washington Center
10:18AM 37.1714 -77.7553 46° Northeast 397 457 23,000  Level Washington Center
10:19AM 37.2544 -77.6506 45° Northeast 397 457 23,000  Level Washington Center
10:20AM 37.3597 -77.6011 20° North 397 457 23,000  Level Washington Center
10:21AM 37.4669 -77.5542 19° North 392 451 23,000  Level Washington Center
10:22AM 37.5739 -77.5072 19° North 398 458 23,000  Level Washington Center
10:23AM 37.6811 -77.4575 20° North 403 464 23,000  Level Washington Center
10:24AM 37.7861 -77.4100 20° North 403 464 23,000  Level Washington Center
10:25AM 37.8911 -77.3628 20° North 403 464 23,000  Level Washington Center
10:26AM 37.9878 -77.3147 21° North 398 458 23,000 -900 Level Washington Center
10:27AM 38.0758 -77.2825 16° North 378 435 21,300 -1,560 Descending Washington Center
10:28AM 38.1703 -77.2397 20° North 365 420 20,000 -1,320 Descending Washington Center
10:29AM 38.2753 -77.1892 21° North 365 420 18,700 1,440 Descending Washington Center
10:30AM 38.3739 -77.1383 22° Northeast 360 414 23,000 -2,220 Climbing Washington Center
10:31AM 38.4414 -77.0708 38° Northeast 360 414 14,300 -5,520 Descending Washington Center
10:32AM 38.5050 -76.9897 45° Northeast 342 394 12,200 -1,200 Descending Washington Center
10:33AM 38.5664 -76.9139 44° Northeast 319 367 12,000 -1,020 Descending Washington Center
10:34AM 38.6339 -76.8328 43° Northeast 299 344 10,200 -1,200 Descending Washington Center
10:35AM 38.6739 -76.7831 44° Northeast 282 325 9,600 -600 Descending Washington Center
10:36AM 38.7228 -76.7067 51° Northeast 263 303 9,000 -1,020 Descending Washington Center
10:38AM 38.7667 -76.6000 62° Northeast 248 285 7,400 -1,200 Descending Potomac TRACON
10:39AM 38.8167 -76.5333 46° Northeast 254 292 6,400 -1,260 Descending Potomac TRACON
10:40AM 38.8833 -76.5500 349° North 275 316 4,900 -1,200 Descending Potomac TRACON
10:41AM 38.9500 -76.5833 339° North 266 306 4,000 -480 Descending Potomac TRACON
10:42AM 39.0000 -76.6667 308° West 266 306 4,000 -120 Level Potomac TRACON
10:43AM 39.0333 -76.7500 297° West 267 307 3,800 -660 Descending Potomac TRACON
10:43AM 39.0667 -76.8167 303° West 270 311 2,800 -1,260 Descending Potomac TRACON
10:44AM 39.1333 -76.8167 360° North 249 287 1,500 -720 Descending Potomac TRACON
10:46AM 39.1833 -76.7667 38° Northeast 183 211 1,400 -480 Descending Potomac TRACON
10:47AM 39.1833 -76.7167 90° East 125 144 600 -840 Descending Potomac TRACON
10:49AM 39.1667 -76.6667 339° North  Level FlightAware Approximate
10:56AM 39.1754 -76.6683 339° North  Level Estimated
10:57AM 39.1754 -76.6683 339° North  Level Estimated